createdAt,value
2017-07-07T00:00:40.821Z,20.40
2017-07-07T00:03:14.510Z,20.40
2017-07-07T00:05:49.019Z,20.50
2017-07-07T00:08:22.937Z,20.40
2017-07-07T00:10:57.565Z,20.60
2017-07-07T00:13:31.493Z,20.50
2017-07-07T00:16:05.146Z,20.70
2017-07-07T00:18:39.705Z,20.70
2017-07-07T00:21:14.229Z,20.70
2017-07-07T00:23:48.159Z,20.70
2017-07-07T00:26:23.681Z,20.70
2017-07-07T00:28:58.318Z,20.60
2017-07-07T00:31:32.466Z,20.50
2017-07-07T00:34:07.812Z,20.40
2017-07-07T00:36:41.813Z,20.40
2017-07-07T00:39:15.527Z,19.80
2017-07-07T00:41:49.428Z,19.30
2017-07-07T00:44:23.754Z,19.10
2017-07-07T00:46:57.841Z,19.00
2017-07-07T00:49:31.457Z,19.00
2017-07-07T00:52:05.925Z,19.00
2017-07-07T00:54:39.899Z,18.90
2017-07-07T00:57:14.268Z,19.20
2017-07-07T00:59:49.038Z,19.20
2017-07-07T01:02:23.216Z,19.20
2017-07-07T01:04:57.009Z,19.30
2017-07-07T01:07:30.783Z,19.20
2017-07-07T01:10:05.306Z,19.20
2017-07-07T01:12:39.310Z,19.30
2017-07-07T01:15:13.688Z,19.10
2017-07-07T01:17:47.877Z,19.10
2017-07-07T01:20:22.401Z,19.10
2017-07-07T01:22:56.146Z,19.10
2017-07-07T01:25:29.836Z,19.10
2017-07-07T01:28:04.545Z,19.00
2017-07-07T01:30:38.269Z,19.00
2017-07-07T01:33:11.970Z,19.00
2017-07-07T01:35:46.486Z,19.10
2017-07-07T01:38:20.497Z,19.10
2017-07-07T01:40:55.006Z,19.10
2017-07-07T01:43:28.870Z,19.10
2017-07-07T01:46:03.382Z,18.90
2017-07-07T01:48:38.110Z,18.70
2017-07-07T01:51:12.703Z,18.70
2017-07-07T01:53:46.749Z,18.60
2017-07-07T01:56:20.454Z,18.60
2017-07-07T01:58:54.217Z,18.60
2017-07-07T02:01:28.742Z,18.50
2017-07-07T02:04:02.814Z,18.50
2017-07-07T02:06:38.197Z,18.50
2017-07-07T02:09:12.205Z,18.50
2017-07-07T02:11:45.840Z,18.50
2017-07-07T02:14:19.595Z,18.60
2017-07-07T02:16:53.304Z,18.50
2017-07-07T02:19:27.099Z,18.50
2017-07-07T02:22:00.729Z,18.50
2017-07-07T02:24:34.713Z,18.50
2017-07-07T02:27:08.446Z,18.60
2017-07-07T02:29:43.114Z,18.50
2017-07-07T02:32:17.689Z,18.50
2017-07-07T02:34:52.561Z,18.50
2017-07-07T02:37:26.553Z,18.40
2017-07-07T02:40:00.530Z,18.50
2017-07-07T02:42:34.181Z,18.50
2017-07-07T02:45:08.012Z,18.50
2017-07-07T02:47:42.510Z,18.60
2017-07-07T02:50:16.142Z,18.60
2017-07-07T02:52:49.873Z,18.50
2017-07-07T02:55:23.580Z,18.50
2017-07-07T02:57:58.055Z,18.50
2017-07-07T03:00:32.662Z,18.30
2017-07-07T03:03:06.536Z,18.20
2017-07-07T03:05:41.010Z,18.30
2017-07-07T03:08:14.870Z,18.30
2017-07-07T03:10:49.009Z,18.30
2017-07-07T03:13:23.397Z,18.30
2017-07-07T03:15:58.077Z,18.40
2017-07-07T03:18:32.005Z,18.30
2017-07-07T03:21:06.702Z,18.40
2017-07-07T03:23:40.717Z,18.30
2017-07-07T03:26:14.549Z,18.40
2017-07-07T03:28:49.009Z,18.40
2017-07-07T03:31:22.961Z,18.30
2017-07-07T03:33:57.437Z,18.40
2017-07-07T03:36:31.636Z,18.30
2017-07-07T03:39:05.258Z,18.40
2017-07-07T03:41:39.050Z,18.40
2017-07-07T03:44:12.659Z,18.40
2017-07-07T03:46:46.477Z,18.40
2017-07-07T03:49:20.150Z,18.40
2017-07-07T03:51:54.039Z,18.40
2017-07-07T03:54:27.754Z,18.40
2017-07-07T03:57:01.561Z,18.40
2017-07-07T03:59:35.182Z,18.40
2017-07-07T04:02:09.858Z,18.30
2017-07-07T04:04:43.765Z,18.20
2017-07-07T04:07:18.296Z,18.20
2017-07-07T04:09:52.218Z,18.10
2017-07-07T04:12:26.000Z,18.20
2017-07-07T04:14:59.741Z,18.20
2017-07-07T04:17:33.434Z,18.10
2017-07-07T04:20:07.218Z,18.20
2017-07-07T04:22:41.190Z,18.20
2017-07-07T04:25:14.894Z,18.30
2017-07-07T04:27:48.781Z,18.30
2017-07-07T04:30:22.499Z,18.40
2017-07-07T04:32:58.341Z,18.40
2017-07-07T04:35:32.027Z,18.40
2017-07-07T04:38:05.689Z,18.50
2017-07-07T04:40:39.410Z,18.50
2017-07-07T04:43:13.293Z,18.60
2017-07-07T04:45:47.018Z,18.70
2017-07-07T04:48:21.446Z,18.70
2017-07-07T04:50:55.405Z,18.70
2017-07-07T04:53:29.253Z,18.80
2017-07-07T04:56:02.909Z,18.80
2017-07-07T04:58:36.863Z,18.90
2017-07-07T05:01:11.319Z,18.90
2017-07-07T05:03:45.102Z,19.00
2017-07-07T05:06:18.730Z,19.10
2017-07-07T05:08:54.233Z,19.20
2017-07-07T05:11:28.053Z,19.20
2017-07-07T05:14:01.876Z,19.30
2017-07-07T05:16:35.601Z,19.40
2017-07-07T05:19:10.497Z,19.50
2017-07-07T05:21:44.190Z,19.50
2017-07-07T05:24:18.714Z,19.60
2017-07-07T05:26:52.671Z,19.50
2017-07-07T05:29:26.350Z,19.60
2017-07-07T05:32:00.030Z,19.60
2017-07-07T05:34:34.575Z,19.70
2017-07-07T05:37:08.491Z,19.70
2017-07-07T05:39:43.089Z,19.70
2017-07-07T05:42:17.781Z,19.80
2017-07-07T05:44:51.822Z,19.70
2017-07-07T05:47:26.221Z,19.80
2017-07-07T05:50:00.748Z,19.80
2017-07-07T05:52:34.781Z,19.80
2017-07-07T05:55:08.465Z,19.90
2017-07-07T05:57:42.185Z,19.90
2017-07-07T06:00:16.706Z,19.90
2017-07-07T06:02:51.294Z,20.00
2017-07-07T06:05:25.390Z,19.90
2017-07-07T06:07:59.055Z,19.90
2017-07-07T06:10:33.578Z,19.90
2017-07-07T06:13:07.504Z,19.90
2017-07-07T06:15:41.517Z,19.90
2017-07-07T06:18:15.298Z,19.90
2017-07-07T06:20:49.646Z,19.90
2017-07-07T06:23:24.513Z,20.00
2017-07-07T06:25:59.222Z,20.00
2017-07-07T06:28:32.974Z,19.90
2017-07-07T06:31:06.695Z,20.00
2017-07-07T06:33:40.382Z,20.00
2017-07-07T06:36:14.810Z,20.20
2017-07-07T06:38:48.712Z,20.10
2017-07-07T06:41:23.228Z,20.30
2017-07-07T06:43:57.145Z,20.20
2017-07-07T06:46:31.665Z,20.40
2017-07-07T06:49:05.701Z,20.40
2017-07-07T06:51:40.305Z,20.60
2017-07-07T06:54:14.024Z,20.50
2017-07-07T06:56:47.923Z,20.70
2017-07-07T06:59:22.434Z,20.70
2017-07-07T07:01:57.370Z,20.80
2017-07-07T07:04:31.318Z,20.80
2017-07-07T07:07:05.211Z,20.90
2017-07-07T07:09:39.654Z,21.00
2017-07-07T07:12:14.313Z,21.10
2017-07-07T07:14:48.245Z,21.10
2017-07-07T07:17:22.106Z,21.10
2017-07-07T07:19:55.792Z,21.00
2017-07-07T07:22:29.961Z,21.00
2017-07-07T07:25:04.372Z,21.10
2017-07-07T07:27:38.269Z,21.00
2017-07-07T07:30:12.786Z,21.10
2017-07-07T07:32:46.578Z,21.10
2017-07-07T07:35:21.114Z,21.20
2017-07-07T07:37:54.792Z,21.20
2017-07-07T07:40:28.418Z,21.30
2017-07-07T07:43:02.158Z,21.30
2017-07-07T07:45:36.745Z,21.40
2017-07-07T07:48:10.625Z,21.50
2017-07-07T07:50:44.359Z,21.50
2017-07-07T07:53:20.114Z,21.50
2017-07-07T07:55:53.914Z,21.50
2017-07-07T07:58:27.801Z,21.50
2017-07-07T08:01:01.625Z,21.50
2017-07-07T08:03:36.146Z,21.70
2017-07-07T08:06:10.149Z,21.70
2017-07-07T08:08:43.842Z,21.70
2017-07-07T08:11:17.461Z,21.70
2017-07-07T08:13:51.365Z,21.80
2017-07-07T08:16:25.793Z,21.80
2017-07-07T08:18:59.754Z,21.80
2017-07-07T08:21:34.325Z,21.90
2017-07-07T08:24:10.893Z,21.90
2017-07-07T08:26:46.188Z,21.90
2017-07-07T08:29:20.393Z,21.90
2017-07-07T08:31:54.173Z,22.00
2017-07-07T08:34:28.666Z,22.00
2017-07-07T08:37:02.617Z,21.90
2017-07-07T08:39:37.424Z,22.00
2017-07-07T08:42:11.295Z,21.90
2017-07-07T08:44:46.652Z,22.10
2017-07-07T08:47:21.246Z,22.10
2017-07-07T08:49:55.274Z,22.10
2017-07-07T08:52:28.882Z,22.20
2017-07-07T08:55:02.540Z,22.30
2017-07-07T08:57:36.219Z,22.30
2017-07-07T09:00:09.958Z,22.50
2017-07-07T09:02:44.390Z,22.60
2017-07-07T09:05:18.481Z,22.60
2017-07-07T09:07:52.261Z,22.80
2017-07-07T09:10:26.077Z,22.90
2017-07-07T09:12:59.791Z,22.90
2017-07-07T09:15:34.389Z,22.90
2017-07-07T09:18:08.190Z,22.90
2017-07-07T09:20:42.894Z,23.00
2017-07-07T09:23:16.696Z,23.00
2017-07-07T09:25:50.542Z,23.00
2017-07-07T09:28:24.136Z,23.10
2017-07-07T09:30:58.678Z,23.10
2017-07-07T09:33:32.490Z,23.00
2017-07-07T09:36:07.110Z,23.10
2017-07-07T09:38:40.894Z,23.00
2017-07-07T09:41:15.432Z,23.20
2017-07-07T09:43:49.353Z,23.10
2017-07-07T09:46:23.973Z,23.20
2017-07-07T09:48:57.736Z,23.10
2017-07-07T09:51:31.658Z,23.20
2017-07-07T09:54:06.086Z,23.20
2017-07-07T09:56:40.497Z,23.20
2017-07-07T09:59:14.574Z,23.20
2017-07-07T10:01:49.262Z,23.30
2017-07-07T10:04:24.540Z,23.30
2017-07-07T10:06:58.631Z,23.20
2017-07-07T10:09:33.797Z,23.50
2017-07-07T10:12:07.729Z,23.40
2017-07-07T10:14:42.234Z,23.50
2017-07-07T10:17:17.106Z,23.50
2017-07-07T10:19:50.900Z,23.50
2017-07-07T10:22:25.432Z,23.90
2017-07-07T10:24:59.385Z,23.80
2017-07-07T10:27:33.229Z,23.90
2017-07-07T10:30:06.941Z,24.00
2017-07-07T10:32:40.797Z,24.00
2017-07-07T10:35:15.238Z,24.20
2017-07-07T10:37:49.793Z,24.20
2017-07-07T10:40:23.594Z,24.10
2017-07-07T10:42:57.408Z,24.20
2017-07-07T10:45:31.118Z,24.20
2017-07-07T10:48:04.954Z,24.20
2017-07-07T10:50:38.666Z,24.20
2017-07-07T10:53:13.313Z,24.30
2017-07-07T10:55:47.045Z,24.30
2017-07-07T10:58:20.918Z,24.30
2017-07-07T11:00:54.574Z,24.30
2017-07-07T11:03:28.318Z,24.30
2017-07-07T11:06:02.062Z,24.40
2017-07-07T11:08:35.821Z,24.40
2017-07-07T11:11:10.358Z,24.50
2017-07-07T11:13:45.148Z,24.50
2017-07-07T11:16:19.826Z,24.50
2017-07-07T11:18:53.962Z,24.50
2017-07-07T11:21:27.712Z,24.50
2017-07-07T11:24:02.330Z,24.50
2017-07-07T11:26:36.034Z,24.70
2017-07-07T11:29:10.006Z,24.90
2017-07-07T11:31:44.540Z,24.80
2017-07-07T11:34:18.279Z,25.00
2017-07-07T11:36:53.650Z,25.10
2017-07-07T11:39:27.550Z,25.10
2017-07-07T11:42:01.973Z,25.20
2017-07-07T11:44:36.652Z,25.20
2017-07-07T11:47:11.230Z,25.10
2017-07-07T11:49:45.181Z,25.10
2017-07-07T11:52:18.869Z,25.00
2017-07-07T11:54:53.850Z,25.20
2017-07-07T11:57:27.607Z,25.20
2017-07-07T12:00:01.353Z,25.40
2017-07-07T12:02:35.108Z,25.50
2017-07-07T12:05:08.826Z,25.50
2017-07-07T12:07:43.451Z,25.40
2017-07-07T12:10:17.421Z,25.40
2017-07-07T12:12:52.766Z,25.60
2017-07-07T12:15:26.612Z,25.60
2017-07-07T12:18:00.994Z,25.80
2017-07-07T12:20:35.880Z,25.80
2017-07-07T12:23:09.665Z,25.70
2017-07-07T12:25:43.481Z,25.80
2017-07-07T12:28:17.861Z,25.80
2017-07-07T12:30:52.821Z,25.60
2017-07-07T12:33:26.779Z,25.60
2017-07-07T12:36:01.157Z,26.20
2017-07-07T12:38:34.958Z,26.10
2017-07-07T12:41:09.606Z,26.30
2017-07-07T12:43:43.465Z,26.20
2017-07-07T12:46:17.238Z,26.20
2017-07-07T12:48:50.998Z,26.20
2017-07-07T12:51:24.733Z,26.20
2017-07-07T12:53:58.377Z,26.20
2017-07-07T12:56:32.841Z,26.40
2017-07-07T12:59:06.733Z,26.40
2017-07-07T13:01:40.657Z,26.40
2017-07-07T13:04:15.039Z,26.90
2017-07-07T13:06:49.885Z,27.10
2017-07-07T13:09:23.821Z,27.00
2017-07-07T13:11:57.526Z,27.10
2017-07-07T13:14:31.994Z,27.40
2017-07-07T13:17:06.086Z,27.30
2017-07-07T13:19:39.857Z,27.30
2017-07-07T13:22:14.540Z,27.40
2017-07-07T13:24:48.962Z,27.40
2017-07-07T13:27:22.894Z,27.40
2017-07-07T13:29:56.503Z,27.60
2017-07-07T13:32:30.385Z,27.80
2017-07-07T13:35:04.830Z,28.20
2017-07-07T13:37:38.623Z,28.40
2017-07-07T13:40:13.509Z,28.80
2017-07-07T13:42:47.874Z,28.70
2017-07-07T13:45:21.594Z,29.20
2017-07-07T13:47:56.238Z,29.50
2017-07-07T13:50:30.033Z,29.40
2017-07-07T13:53:05.714Z,29.70
2017-07-07T13:55:40.253Z,30.10
2017-07-07T13:58:15.126Z,30.60
2017-07-07T14:00:48.890Z,30.40
2017-07-07T14:03:22.651Z,30.70
2017-07-07T14:05:57.274Z,30.50
2017-07-07T14:08:31.867Z,30.80
2017-07-07T14:11:06.375Z,30.70
2017-07-07T14:13:40.255Z,30.70
2017-07-07T14:16:14.698Z,30.60
2017-07-07T14:18:49.474Z,30.50
2017-07-07T14:21:23.378Z,30.50
2017-07-07T14:23:58.144Z,30.40
2017-07-07T14:26:32.676Z,30.50
2017-07-07T14:29:07.251Z,30.10
2017-07-07T14:31:40.954Z,30.10
2017-07-07T14:34:15.579Z,29.80
2017-07-07T14:36:49.385Z,29.70
2017-07-07T14:39:24.012Z,29.60
2017-07-07T14:41:57.770Z,29.50
2017-07-07T14:44:31.507Z,29.50
2017-07-07T14:47:05.174Z,29.80
2017-07-07T14:49:39.090Z,30.00
2017-07-07T14:52:14.423Z,30.50
2017-07-07T14:54:49.527Z,30.50
2017-07-07T14:57:23.328Z,30.80
2017-07-07T14:59:57.914Z,31.30
2017-07-07T15:02:31.623Z,31.30
2017-07-07T15:05:06.269Z,30.40
2017-07-07T15:07:40.955Z,30.50
2017-07-07T15:10:15.261Z,30.40
2017-07-07T15:12:49.818Z,30.80
2017-07-07T15:15:24.458Z,30.40
2017-07-07T15:17:58.938Z,30.10
2017-07-07T15:20:33.079Z,30.00
2017-07-07T15:23:07.677Z,29.80
2017-07-07T15:25:42.257Z,28.80
2017-07-07T15:28:16.093Z,28.70
2017-07-07T15:30:50.698Z,28.60
2017-07-07T15:33:24.673Z,28.60
2017-07-07T15:35:59.311Z,28.90
2017-07-07T15:38:33.790Z,29.80
2017-07-07T15:41:07.861Z,29.80
2017-07-07T15:43:41.481Z,30.60
2017-07-07T15:46:15.301Z,31.30
2017-07-07T15:48:49.726Z,31.70
2017-07-07T15:51:23.613Z,31.70
2017-07-07T15:53:57.395Z,32.20
2017-07-07T15:56:31.820Z,32.30
2017-07-07T15:59:05.806Z,32.20
2017-07-07T16:01:39.604Z,32.20
2017-07-07T16:04:13.330Z,32.20
2017-07-07T16:06:47.747Z,32.70
2017-07-07T16:09:22.330Z,33.10
2017-07-07T16:11:56.499Z,33.00
2017-07-07T16:14:30.150Z,33.20
2017-07-07T16:17:03.780Z,33.30
2017-07-07T16:19:37.551Z,33.70
2017-07-07T16:22:11.209Z,34.20
2017-07-07T16:24:45.761Z,34.40
2017-07-07T16:27:19.526Z,34.70
2017-07-07T16:29:54.014Z,35.10
2017-07-07T16:32:27.874Z,35.00
2017-07-07T16:35:01.558Z,35.40
2017-07-07T16:37:35.285Z,35.70
2017-07-07T16:40:09.829Z,35.70
2017-07-07T16:42:44.853Z,35.90
2017-07-07T16:45:19.016Z,36.20
2017-07-07T16:47:53.820Z,36.10
2017-07-07T16:50:29.057Z,36.20
2017-07-07T16:53:05.274Z,36.50
2017-07-07T16:55:39.844Z,36.50
2017-07-07T16:58:13.740Z,36.30
2017-07-07T17:00:48.173Z,36.40
2017-07-07T17:03:22.283Z,36.40
2017-07-07T17:05:57.653Z,34.70
2017-07-07T17:08:31.642Z,34.70
2017-07-07T17:11:06.153Z,33.90
2017-07-07T17:13:39.926Z,33.40
2017-07-07T17:16:14.541Z,32.60
2017-07-07T17:18:49.885Z,31.70
2017-07-07T17:21:23.638Z,31.70
2017-07-07T17:23:59.230Z,31.30
2017-07-07T17:26:33.609Z,31.00
2017-07-07T17:29:07.614Z,30.90
2017-07-07T17:31:42.146Z,30.70
2017-07-07T17:34:16.054Z,30.70
2017-07-07T17:36:50.481Z,30.60
2017-07-07T17:39:24.381Z,30.50
2017-07-07T17:41:58.910Z,30.50
2017-07-07T17:44:33.013Z,30.40
2017-07-07T17:47:06.599Z,30.40
2017-07-07T17:49:40.517Z,30.30
2017-07-07T17:52:14.210Z,30.10
2017-07-07T17:54:48.898Z,29.90
2017-07-07T17:57:23.477Z,29.60
2017-07-07T17:59:57.536Z,29.50
2017-07-07T18:02:32.014Z,29.50
2017-07-07T18:05:05.843Z,29.40
2017-07-07T18:07:39.450Z,29.30
2017-07-07T18:10:13.818Z,29.20
2017-07-07T18:12:47.831Z,29.20
2017-07-07T18:15:22.390Z,29.40
2017-07-07T18:17:56.385Z,29.40
2017-07-07T18:20:30.125Z,29.20
2017-07-07T18:23:03.901Z,29.20
2017-07-07T18:25:38.425Z,29.00
2017-07-07T18:28:12.282Z,28.90
2017-07-07T18:30:46.853Z,28.70
2017-07-07T18:33:21.506Z,28.70
2017-07-07T18:35:56.258Z,28.70
2017-07-07T18:38:30.175Z,28.70
2017-07-07T18:41:04.003Z,28.70
2017-07-07T18:43:37.872Z,28.70
2017-07-07T18:46:12.425Z,28.80
2017-07-07T18:48:47.105Z,28.50
2017-07-07T18:51:20.989Z,28.50
2017-07-07T18:53:54.593Z,28.50
2017-07-07T18:56:29.431Z,28.30
2017-07-07T18:59:03.965Z,28.10
2017-07-07T19:01:37.956Z,28.00
2017-07-07T19:04:12.627Z,27.90
2017-07-07T19:06:46.526Z,27.80
2017-07-07T19:09:20.198Z,27.70
2017-07-07T19:11:54.059Z,27.60
2017-07-07T19:14:28.545Z,27.50
2017-07-07T19:17:02.722Z,27.40
2017-07-07T19:19:37.919Z,27.20
2017-07-07T19:22:11.936Z,27.20
2017-07-07T19:24:46.354Z,27.10
2017-07-07T19:27:20.339Z,27.10
2017-07-07T19:29:54.781Z,26.90
2017-07-07T19:32:28.861Z,26.90
2017-07-07T19:35:03.349Z,26.90
2017-07-07T19:37:37.206Z,26.80
2017-07-07T19:40:11.761Z,26.70
2017-07-07T19:42:46.310Z,26.50
2017-07-07T19:45:20.319Z,26.50
2017-07-07T19:47:54.203Z,26.50
2017-07-07T19:50:28.750Z,26.50
2017-07-07T19:53:02.440Z,26.50
2017-07-07T19:55:36.057Z,26.40
2017-07-07T19:58:09.904Z,26.30
2017-07-07T20:00:44.348Z,26.10
2017-07-07T20:03:18.429Z,26.00
2017-07-07T20:05:52.066Z,26.00
2017-07-07T20:08:25.914Z,25.90
2017-07-07T20:11:00.393Z,25.70
2017-07-07T20:13:34.489Z,25.60
2017-07-07T20:16:09.021Z,25.50
2017-07-07T20:18:43.129Z,25.50
2017-07-07T20:21:16.718Z,25.40
2017-07-07T20:23:51.477Z,25.40
2017-07-07T20:26:25.094Z,25.20
2017-07-07T20:28:58.958Z,25.20
2017-07-07T20:31:32.677Z,25.10
2017-07-07T20:34:07.270Z,24.90
2017-07-07T20:36:41.210Z,24.90
2017-07-07T20:39:15.134Z,24.90
2017-07-07T20:41:48.899Z,24.80
2017-07-07T20:44:22.694Z,24.80
2017-07-07T20:46:57.273Z,24.70
2017-07-07T20:49:31.057Z,24.60
2017-07-07T20:52:05.529Z,24.60
2017-07-07T20:54:41.258Z,24.50
2017-07-07T20:57:15.854Z,24.40
2017-07-07T20:59:50.010Z,24.40
2017-07-07T21:02:23.621Z,24.40
2017-07-07T21:04:58.353Z,24.30
2017-07-07T21:07:33.045Z,24.20
2017-07-07T21:10:07.230Z,24.20
2017-07-07T21:12:40.881Z,24.20
2017-07-07T21:15:14.693Z,24.10
2017-07-07T21:17:49.081Z,24.00
2017-07-07T21:20:23.849Z,24.00
2017-07-07T21:22:57.649Z,24.00
2017-07-07T21:25:33.472Z,23.90
2017-07-07T21:28:07.310Z,23.90
2017-07-07T21:30:41.757Z,23.70
2017-07-07T21:33:15.639Z,23.70
2017-07-07T21:35:50.250Z,23.60
2017-07-07T21:38:24.214Z,23.60
2017-07-07T21:40:58.902Z,23.50
2017-07-07T21:43:33.522Z,23.50
2017-07-07T21:46:07.497Z,23.50
2017-07-07T21:48:42.009Z,23.40
2017-07-07T21:51:16.669Z,23.40
2017-07-07T21:53:50.513Z,23.30
2017-07-07T21:56:25.290Z,23.30
2017-07-07T21:58:58.896Z,23.30
2017-07-07T22:01:33.446Z,23.20
2017-07-07T22:04:07.249Z,23.20
2017-07-07T22:06:41.066Z,23.10
2017-07-07T22:09:14.686Z,23.10
2017-07-07T22:11:49.294Z,22.90
2017-07-07T22:14:23.225Z,22.80
2017-07-07T22:16:57.123Z,22.80
2017-07-07T22:19:31.606Z,22.70
2017-07-07T22:22:05.305Z,22.70
2017-07-07T22:24:39.700Z,22.60
2017-07-07T22:27:14.713Z,22.60
2017-07-07T22:29:48.493Z,22.60
2017-07-07T22:32:23.116Z,22.60
2017-07-07T22:34:57.695Z,22.60
2017-07-07T22:37:31.766Z,22.50
2017-07-07T22:40:05.483Z,22.50
2017-07-07T22:42:40.086Z,22.40
2017-07-07T22:45:14.014Z,22.40
2017-07-07T22:47:48.626Z,22.40
2017-07-07T22:50:22.627Z,22.30
2017-07-07T22:52:57.301Z,22.40
2017-07-07T22:55:31.682Z,22.30
2017-07-07T22:58:05.879Z,22.30
2017-07-07T23:00:40.769Z,22.20
2017-07-07T23:03:14.766Z,22.10
2017-07-07T23:05:48.381Z,22.10
2017-07-07T23:08:22.287Z,22.10
2017-07-07T23:10:55.893Z,22.10
2017-07-07T23:13:29.605Z,22.00
2017-07-07T23:16:03.305Z,22.00
2017-07-07T23:18:37.142Z,22.00
2017-07-07T23:21:10.911Z,21.90
2017-07-07T23:23:45.561Z,21.90
2017-07-07T23:26:19.958Z,21.90
2017-07-07T23:28:53.962Z,21.80
2017-07-07T23:31:27.550Z,21.80
2017-07-07T23:34:01.205Z,21.70
2017-07-07T23:36:34.877Z,21.70
2017-07-07T23:39:08.569Z,21.70
2017-07-07T23:41:43.089Z,21.60
2017-07-07T23:44:17.110Z,21.60
2017-07-07T23:46:51.771Z,21.60
2017-07-07T23:49:25.538Z,21.60
2017-07-07T23:51:59.962Z,21.60
2017-07-07T23:54:35.070Z,21.50
2017-07-07T23:57:09.622Z,21.50
2017-07-07T23:59:43.557Z,21.50
